Celebrity Century — 9HJI9 — position and weather

sailwx.info

Track history (hours):
 
Tides and Currents Weather Stations Pressure Air Temp Water Temp Dewpoint Dewpoint Depression Visibility Wind Speed Wind Dir Waves Ship Positions

Celebrity Century

Last reported at 2020-Jul-11 03:30 UTC. Time now 2020-Jul-11 07:10 UTC.
Position N 50°38' W 001°03'.

Length 247 m; draft 8 m.

Type: Ship. MMSI: 249054000.

Date/timePositionNaut miles runAvg speedWind from/ knotsBaromVisibWave heightAir tempDewpointWater temp
2020-Jul-11 03:30N 50°38' W 001°03'0 0.0
2020-Jul-11 03:00N 50°38' W 001°03'0 0.1
2020-Jul-11 02:30N 50°38' W 001°03'0 0.0
2020-Jul-11 02:00N 50°38' W 001°03'0 0.0
2020-Jul-11 01:00N 50°38' W 001°03'0 0.0
2020-Jul-10 22:30N 50°38' W 001°03'0 0.0
2020-Jul-10 19:30N 50°38' W 001°03'0 0.0
2020-Jul-10 19:00N 50°38' W 001°03'0 0.0
2020-Jul-10 16:00N 50°38' W 001°03'0 0.1
2020-Jul-10 15:00N 50°38' W 001°03'0 0.0
2020-Jul-10 13:30N 50°38' W 001°03'0 0.0
2020-Jul-10 12:00N 50°38' W 001°03'0 0.0
2020-Jul-10 11:00N 50°38' W 001°03'0 0.0
2020-Jul-10 08:30N 50°38' W 001°03'0 0.0
2020-Jul-10 06:30N 50°38' W 001°03'0 0.1
2020-Jul-10 06:00N 50°38' W 001°03'0 0.0
2020-Jul-10 05:30N 50°38' W 001°03'0 0.0
2020-Jul-10 02:30N 50°38' W 001°03'0 0.1
2020-Jul-10 02:00N 50°38' W 001°03'0 0.0
2020-Jul-10 01:30N 50°38' W 001°03'0 0.0
2020-Jul-10 01:00N 50°38' W 001°03'0 0.1
2020-Jul-10 00:30N 50°38' W 001°03'0 0.0
2020-Jul-09 22:00N 50°38' W 001°03'0 0.0
2020-Jul-09 19:54N 50°38' W 001°03'0 0.0
2020-Jul-09 16:00N 50°38' W 001°03'0 0.1
2020-Jul-09 15:00N 50°38' W 001°03'0 0.1
2020-Jul-09 14:00N 50°39' W 001°03'0 0.1
2020-Jul-09 12:21N 50°38' W 001°03'0 0.2
2020-Jul-09 12:00N 50°39' W 001°03'0 0.2
2020-Jul-09 11:30N 50°38' W 001°03'0 0.0
2020-Jul-09 10:30N 50°38' W 001°03'0 0.0
2020-Jul-09 09:00N 50°38' W 001°03'0 0.1
2020-Jul-09 08:30N 50°38' W 001°03'0 0.0
2020-Jul-09 06:59N 50°38' W 001°03'0 0.2
2020-Jul-09 05:59N 50°38' W 001°03'0 0.1
2020-Jul-09 02:59N 50°38' W 001°03'0 0.0
2020-Jul-08 21:59N 50°38' W 001°03'0 0.0
2020-Jul-08 20:26N 50°38' W 001°03'0 0.1
2020-Jul-08 17:29N 50°38' W 001°03'0 0.1
2020-Jul-08 16:59N 50°38' W 001°03'0 0.0
2020-Jul-08 15:29N 50°38' W 001°03'0 0.1
2020-Jul-08 13:59N 50°38' W 001°03'0 0.0
2020-Jul-08 13:29N 50°38' W 001°03'0 0.1
2020-Jul-08 12:59N 50°38' W 001°03'0 0.1
2020-Jul-08 12:29N 50°38' W 001°03'0 0.0
2020-Jul-08 10:47N 50°38' W 001°03'0 0.0
2020-Jul-08 05:30N 50°38' W 001°03'0 0.0
2020-Jul-08 03:00N 50°38' W 001°03'0 0.1
2020-Jul-07 22:57N 50°38' W 001°03'0 0.0
2020-Jul-07 22:00N 50°38' W 001°03'0 0.0
2020-Jul-07 20:24N 50°38' W 001°03'0 0.0
2020-Jul-07 18:30N 50°38' W 001°03'0 0.1
2020-Jul-07 16:00N 50°38' W 001°03'0 0.0
2020-Jul-07 15:00N 50°38' W 001°03'0 0.0
2020-Jul-07 14:00N 50°38' W 001°03'0 0.2
2020-Jul-07 13:00N 50°38' W 001°03'0 0.1
2020-Jul-07 11:30N 50°38' W 001°03'0 0.1
2020-Jul-07 11:00N 50°38' W 001°03'0 0.0
2020-Jul-07 07:30N 50°38' W 001°03'0 0.0
2020-Jul-07 05:30N 50°38' W 001°03'0 0.0
2020-Jul-07 05:00N 50°38' W 001°03'0 0.0
2020-Jul-07 03:30N 50°38' W 001°03'0 0.0
2020-Jul-07 03:00N 50°38' W 001°03'0 0.1
2020-Jul-07 00:00N 50°38' W 001°03'0 0.0
2020-Jul-06 22:24N 50°38' W 001°03'9 2.5
2020-Jul-06 19:01N 50°31' W 001°10'816.0
2020-Jul-06 18:30N 50°24' W 001°16'10 9.0
2020-Jul-06 17:23N 50°23' W 001°32'3 8.5
2020-Jul-06 16:59N 50°24' W 001°37'19 3.8
2020-Jul-06 12:00N 50°40' W 001°51'0 0.0
2020-Jul-06 11:00N 50°41' W 001°51'0 0.0
2020-Jul-06 09:57N 50°41' W 001°51'0 0.0
2020-Jul-06 09:30N 50°41' W 001°51'0 0.0
2020-Jul-06 08:27N 50°41' W 001°51'0 0.0
2020-Jul-06 08:00N 50°41' W 001°51'0 0.0
2020-Jul-06 04:30N 50°41' W 001°51'0 0.1
2020-Jul-06 03:00N 50°41' W 001°51'0 0.0
2020-Jul-06 02:00N 50°41' W 001°51'0 0.0
2020-Jul-06 01:30N 50°41' W 001°51'0 0.0
2020-Jul-05 21:57N 50°41' W 001°51'0 0.0
2020-Jul-05 20:00N 50°41' W 001°51'0 0.0
2020-Jul-05 16:00N 50°41' W 001°51'0 0.2
2020-Jul-05 15:30N 50°41' W 001°51'0 0.0
2020-Jul-05 12:30N 50°41' W 001°51'0 0.0
2020-Jul-05 10:30N 50°41' W 001°51'0 0.0
2020-Jul-05 05:30N 50°41' W 001°51'0 0.0
2020-Jul-05 04:00N 50°41' W 001°51'0 0.0
2020-Jul-05 03:00N 50°41' W 001°51'0 0.1
2020-Jul-05 02:00N 50°41' W 001°51'0 0.0
2020-Jul-04 22:30N 50°41' W 001°51'0 0.0
2020-Jul-04 20:00N 50°41' W 001°51'0 0.1
2020-Jul-04 19:30N 50°41' W 001°51'0 0.1
2020-Jul-04 18:30N 50°41' W 001°51'0 0.0
2020-Jul-04 12:30N 50°40' W 001°51'0 0.0
2020-Jul-04 11:30N 50°40' W 001°51'17 1.9
2020-Jul-04 02:59N 50°24' W 001°52'1 1.0
2020-Jul-04 01:58N 50°24' W 001°54'26 5.8
2020-Jul-03 21:29N 50°29' W 001°14'611.3
2020-Jul-03 21:00N 50°34' W 001°09'4 1.4
2020-Jul-03 17:59N 50°38' W 001°07'0 0.0
2020-Jul-03 16:29N 50°38' W 001°07'0 0.1
2020-Jul-03 15:53N 50°37' W 001°07'0 0.1
2020-Jul-03 15:23N 50°37' W 001°07'0 0.1
2020-Jul-03 14:29N 50°37' W 001°08'0 0.1
2020-Jul-03 13:59N 50°38' W 001°08'0 0.0
2020-Jul-03 13:23N 50°37' W 001°08'0 0.1
2020-Jul-03 10:17N 50°37' W 001°07'0 0.4
2020-Jul-03 09:59N 50°37' W 001°08'0 0.1
2020-Jul-03 09:23N 50°37' W 001°07'0 0.0
2020-Jul-03 08:59N 50°37' W 001°07'0 0.1
2020-Jul-03 08:29N 50°37' W 001°08'0 0.0
2020-Jul-03 06:17N 50°37' W 001°08'0 0.0
2020-Jul-03 02:59N 50°37' W 001°08'0 0.0
2020-Jul-03 02:29N 50°37' W 001°08'0 0.0
2020-Jul-02 18:11N 50°37' W 001°07'0 0.0
2020-Jul-02 15:59N 50°37' W 001°07'0 0.0
2020-Jul-02 14:23N 50°37' W 001°07'0 0.1
2020-Jul-02 11:29N 50°37' W 001°08'0 0.0
2020-Jul-02 10:59N 50°37' W 001°08'0 0.0
2020-Jul-02 10:29N 50°37' W 001°08'0 0.2
2020-Jul-02 09:29N 50°37' W 001°08'0 0.1
2020-Jul-02 08:59N 50°37' W 001°08'0 0.0
2020-Jul-02 03:59N 50°37' W 001°08'0 0.1
2020-Jul-02 03:29N 50°37' W 001°08'0 0.0
2020-Jul-02 01:23N 50°37' W 001°08'0 0.1
2020-Jul-01 23:29N 50°37' W 001°08'0 0.1
2020-Jul-01 18:29N 50°37' W 001°07'0 0.0
2020-Jul-01 15:53N 50°37' W 001°08'1 0.2
2020-Jul-01 13:28N 50°38' W 001°07'0 0.0
2020-Jul-01 05:28N 50°38' W 001°07'0 0.0
2020-Jul-01 03:58N 50°38' W 001°07'  
Track history (hours):
 
Tides and Currents Weather Stations Pressure Air Temp Water Temp Dewpoint Dewpoint Depression Visibility Wind Speed Wind Dir Waves Ship Positions

Celebrity Century

Last reported at 2020-Jul-11 03:30 UTC. Time now 2020-Jul-11 07:10 UTC.
Position N 50°38' W 001°03'.

Length 247 m; draft 8 m.

Type: Ship. MMSI: 249054000.

Date/timePositionNaut miles runAvg speedWind from/ knotsBaromVisibWave heightAir tempDewpointWater temp
2020-Jul-11 03:30N 50°38' W 001°03'0 0.0
2020-Jul-11 03:00N 50°38' W 001°03'0 0.1
2020-Jul-11 02:30N 50°38' W 001°03'0 0.0
2020-Jul-11 02:00N 50°38' W 001°03'0 0.0
2020-Jul-11 01:00N 50°38' W 001°03'0 0.0
2020-Jul-10 22:30N 50°38' W 001°03'0 0.0
2020-Jul-10 19:30N 50°38' W 001°03'0 0.0
2020-Jul-10 19:00N 50°38' W 001°03'0 0.0
2020-Jul-10 16:00N 50°38' W 001°03'0 0.1
2020-Jul-10 15:00N 50°38' W 001°03'0 0.0
2020-Jul-10 13:30N 50°38' W 001°03'0 0.0
2020-Jul-10 12:00N 50°38' W 001°03'0 0.0
2020-Jul-10 11:00N 50°38' W 001°03'0 0.0
2020-Jul-10 08:30N 50°38' W 001°03'0 0.0
2020-Jul-10 06:30N 50°38' W 001°03'0 0.1
2020-Jul-10 06:00N 50°38' W 001°03'0 0.0
2020-Jul-10 05:30N 50°38' W 001°03'0 0.0
2020-Jul-10 02:30N 50°38' W 001°03'0 0.1
2020-Jul-10 02:00N 50°38' W 001°03'0 0.0
2020-Jul-10 01:30N 50°38' W 001°03'0 0.0
2020-Jul-10 01:00N 50°38' W 001°03'0 0.1
2020-Jul-10 00:30N 50°38' W 001°03'0 0.0
2020-Jul-09 22:00N 50°38' W 001°03'0 0.0
2020-Jul-09 19:54N 50°38' W 001°03'0 0.0
2020-Jul-09 16:00N 50°38' W 001°03'0 0.1
2020-Jul-09 15:00N 50°38' W 001°03'0 0.1
2020-Jul-09 14:00N 50°39' W 001°03'0 0.1
2020-Jul-09 12:21N 50°38' W 001°03'0 0.2
2020-Jul-09 12:00N 50°39' W 001°03'0 0.2
2020-Jul-09 11:30N 50°38' W 001°03'0 0.0
2020-Jul-09 10:30N 50°38' W 001°03'0 0.0
2020-Jul-09 09:00N 50°38' W 001°03'0 0.1
2020-Jul-09 08:30N 50°38' W 001°03'0 0.0
2020-Jul-09 06:59N 50°38' W 001°03'0 0.2
2020-Jul-09 05:59N 50°38' W 001°03'0 0.1
2020-Jul-09 02:59N 50°38' W 001°03'0 0.0
2020-Jul-08 21:59N 50°38' W 001°03'0 0.0
2020-Jul-08 20:26N 50°38' W 001°03'0 0.1
2020-Jul-08 17:29N 50°38' W 001°03'0 0.1
2020-Jul-08 16:59N 50°38' W 001°03'0 0.0
2020-Jul-08 15:29N 50°38' W 001°03'0 0.1
2020-Jul-08 13:59N 50°38' W 001°03'0 0.0
2020-Jul-08 13:29N 50°38' W 001°03'0 0.1
2020-Jul-08 12:59N 50°38' W 001°03'0 0.1
2020-Jul-08 12:29N 50°38' W 001°03'0 0.0
2020-Jul-08 10:47N 50°38' W 001°03'0 0.0
2020-Jul-08 05:30N 50°38' W 001°03'0 0.0
2020-Jul-08 03:00N 50°38' W 001°03'0 0.1
2020-Jul-07 22:57N 50°38' W 001°03'0 0.0
2020-Jul-07 22:00N 50°38' W 001°03'0 0.0
2020-Jul-07 20:24N 50°38' W 001°03'0 0.0
2020-Jul-07 18:30N 50°38' W 001°03'0 0.1
2020-Jul-07 16:00N 50°38' W 001°03'0 0.0
2020-Jul-07 15:00N 50°38' W 001°03'0 0.0
2020-Jul-07 14:00N 50°38' W 001°03'0 0.2
2020-Jul-07 13:00N 50°38' W 001°03'0 0.1
2020-Jul-07 11:30N 50°38' W 001°03'0 0.1
2020-Jul-07 11:00N 50°38' W 001°03'0 0.0
2020-Jul-07 07:30N 50°38' W 001°03'0 0.0
2020-Jul-07 05:30N 50°38' W 001°03'0 0.0
2020-Jul-07 05:00N 50°38' W 001°03'0 0.0
2020-Jul-07 03:30N 50°38' W 001°03'0 0.0
2020-Jul-07 03:00N 50°38' W 001°03'0 0.1
2020-Jul-07 00:00N 50°38' W 001°03'0 0.0
2020-Jul-06 22:24N 50°38' W 001°03'9 2.5
2020-Jul-06 19:01N 50°31' W 001°10'816.0
2020-Jul-06 18:30N 50°24' W 001°16'10 9.0
2020-Jul-06 17:23N 50°23' W 001°32'3 8.5
2020-Jul-06 16:59N 50°24' W 001°37'19 3.8
2020-Jul-06 12:00N 50°40' W 001°51'0 0.0
2020-Jul-06 11:00N 50°41' W 001°51'0 0.0
2020-Jul-06 09:57N 50°41' W 001°51'0 0.0
2020-Jul-06 09:30N 50°41' W 001°51'0 0.0
2020-Jul-06 08:27N 50°41' W 001°51'0 0.0
2020-Jul-06 08:00N 50°41' W 001°51'0 0.0
2020-Jul-06 04:30N 50°41' W 001°51'0 0.1
2020-Jul-06 03:00N 50°41' W 001°51'0 0.0
2020-Jul-06 02:00N 50°41' W 001°51'0 0.0
2020-Jul-06 01:30N 50°41' W 001°51'0 0.0
2020-Jul-05 21:57N 50°41' W 001°51'0 0.0
2020-Jul-05 20:00N 50°41' W 001°51'0 0.0
2020-Jul-05 16:00N 50°41' W 001°51'0 0.2
2020-Jul-05 15:30N 50°41' W 001°51'0 0.0
2020-Jul-05 12:30N 50°41' W 001°51'0 0.0
2020-Jul-05 10:30N 50°41' W 001°51'0 0.0
2020-Jul-05 05:30N 50°41' W 001°51'0 0.0
2020-Jul-05 04:00N 50°41' W 001°51'0 0.0
2020-Jul-05 03:00N 50°41' W 001°51'0 0.1
2020-Jul-05 02:00N 50°41' W 001°51'0 0.0
2020-Jul-04 22:30N 50°41' W 001°51'0 0.0
2020-Jul-04 20:00N 50°41' W 001°51'0 0.1
2020-Jul-04 19:30N 50°41' W 001°51'0 0.1
2020-Jul-04 18:30N 50°41' W 001°51'0 0.0
2020-Jul-04 12:30N 50°40' W 001°51'0 0.0
2020-Jul-04 11:30N 50°40' W 001°51'17 1.9
2020-Jul-04 02:59N 50°24' W 001°52'1 1.0
2020-Jul-04 01:58N 50°24' W 001°54'26 5.8
2020-Jul-03 21:29N 50°29' W 001°14'611.3
2020-Jul-03 21:00N 50°34' W 001°09'4 1.4
2020-Jul-03 17:59N 50°38' W 001°07'0 0.0
2020-Jul-03 16:29N 50°38' W 001°07'0 0.1
2020-Jul-03 15:53N 50°37' W 001°07'0 0.1
2020-Jul-03 15:23N 50°37' W 001°07'0 0.1
2020-Jul-03 14:29N 50°37' W 001°08'0 0.1
2020-Jul-03 13:59N 50°38' W 001°08'0 0.0
2020-Jul-03 13:23N 50°37' W 001°08'0 0.1
2020-Jul-03 10:17N 50°37' W 001°07'0 0.4
2020-Jul-03 09:59N 50°37' W 001°08'0 0.1
2020-Jul-03 09:23N 50°37' W 001°07'0 0.0
2020-Jul-03 08:59N 50°37' W 001°07'0 0.1
2020-Jul-03 08:29N 50°37' W 001°08'0 0.0
2020-Jul-03 06:17N 50°37' W 001°08'0 0.0
2020-Jul-03 02:59N 50°37' W 001°08'0 0.0
2020-Jul-03 02:29N 50°37' W 001°08'0 0.0
2020-Jul-02 18:11N 50°37' W 001°07'0 0.0
2020-Jul-02 15:59N 50°37' W 001°07'0 0.0
2020-Jul-02 14:23N 50°37' W 001°07'0 0.1
2020-Jul-02 11:29N 50°37' W 001°08'0 0.0
2020-Jul-02 10:59N 50°37' W 001°08'0 0.0
2020-Jul-02 10:29N 50°37' W 001°08'0 0.2
2020-Jul-02 09:29N 50°37' W 001°08'0 0.1
2020-Jul-02 08:59N 50°37' W 001°08'0 0.0
2020-Jul-02 03:59N 50°37' W 001°08'0 0.1
2020-Jul-02 03:29N 50°37' W 001°08'0 0.0
2020-Jul-02 01:23N 50°37' W 001°08'0 0.1
2020-Jul-01 23:29N 50°37' W 001°08'0 0.1
2020-Jul-01 18:29N 50°37' W 001°07'0 0.0
2020-Jul-01 15:53N 50°37' W 001°08'1 0.2
2020-Jul-01 13:28N 50°38' W 001°07'0 0.0
2020-Jul-01 05:28N 50°38' W 001°07'0 0.0
2020-Jul-01 03:58N 50°38' W 001°07'  

Dump ship's entire track history